Time;durP1;ratioP1;P1;durP2;ratioP2;P2;SDS_P1;SDS_P2;PMS_P1;PMS_P2;Temp;Humidity;BMP_temperature;BMP_pressure;BME280_temperature;BME280_humidity;BME280_pressure;Samples;Min_cycle;Max_cycle;Signal;HPM_P1;HPM_P2
2023/12/27 00:00:39;;;;;;;5.27;2.80;;;21.40;59.20;;;;;;5133470;27;20401;-69
2023/12/27 00:03:04;;;;;;;2.60;2.10;;;21.40;58.90;;;;;;5133271;27;20176;-69
2023/12/27 00:05:30;;;;;;;4.03;2.80;;;21.40;58.90;;;;;;5133191;27;21025;-69
2023/12/27 00:07:56;;;;;;;3.80;2.57;;;21.40;58.80;;;;;;5133211;27;20188;-70
2023/12/27 00:10:22;;;;;;;4.37;2.60;;;21.40;58.90;;;;;;5133181;27;20410;-70
2023/12/27 00:12:47;;;;;;;4.07;2.60;;;21.40;58.90;;;;;;5133248;27;20674;-70
2023/12/27 00:15:13;;;;;;;4.23;2.63;;;21.40;58.80;;;;;;5133109;27;20175;-70
2023/12/27 00:17:38;;;;;;;3.90;2.50;;;21.40;58.90;;;;;;5132573;27;20609;-70
2023/12/27 00:20:05;;;;;;;5.00;2.20;;;21.40;58.90;;;;;;5133383;27;20176;-70
2023/12/27 00:22:30;;;;;;;3.60;2.50;;;21.40;58.90;;;;;;5133282;27;20185;-70
2023/12/27 00:24:56;;;;;;;3.53;2.33;;;21.40;58.90;;;;;;5132837;27;20829;-70
2023/12/27 00:27:21;;;;;;;3.07;2.03;;;21.40;58.90;;;;;;5132547;27;20272;-70
2023/12/27 00:29:47;;;;;;;4.00;2.50;;;21.40;58.90;;;;;;5132944;27;20202;-70
2023/12/27 00:32:12;;;;;;;3.20;2.10;;;21.40;58.90;;;;;;5132583;27;20191;-69
2023/12/27 00:34:38;;;;;;;2.57;1.87;;;21.40;58.90;;;;;;5132742;27;20677;-69
2023/12/27 00:37:05;;;;;;;2.93;2.30;;;21.40;58.90;;;;;;5132974;27;20191;-70
2023/12/27 00:39:31;;;;;;;2.80;1.93;;;21.40;58.90;;;;;;5133138;27;20959;-70
2023/12/27 00:41:57;;;;;;;5.03;3.10;;;21.40;58.90;;;;;;5132715;27;20446;-70
2023/12/27 00:44:23;;;;;;;3.30;2.10;;;21.40;58.90;;;;;;5132611;27;20164;-69
2023/12/27 00:46:49;;;;;;;3.57;2.00;;;21.40;58.90;;;;;;5133022;27;20486;-70
2023/12/27 00:49:16;;;;;;;3.33;2.20;;;21.40;58.90;;;;;;5132666;27;20678;-70
2023/12/27 00:51:42;;;;;;;3.67;2.10;;;21.40;58.90;;;;;;5132624;27;20195;-70
2023/12/27 00:54:07;;;;;;;4.17;2.50;;;21.40;58.90;;;;;;5132587;27;20402;-69
2023/12/27 00:56:33;;;;;;;4.03;2.20;;;21.40;58.90;;;;;;5132637;27;20164;-69
2023/12/27 00:58:59;;;;;;;3.17;2.00;;;21.40;58.90;;;;;;5132602;28;20165;-70
2023/12/27 01:01:24;;;;;;;2.63;2.33;;;21.40;58.90;;;;;;5132491;28;20769;-70
2023/12/27 01:03:50;;;;;;;4.10;2.00;;;21.40;58.90;;;;;;5132726;28;20659;-70
2023/12/27 01:06:16;;;;;;;3.10;2.13;;;21.40;58.90;;;;;;5132775;28;20172;-70
2023/12/27 01:08:41;;;;;;;2.37;1.60;;;21.30;58.80;;;;;;5132453;28;20184;-70
2023/12/27 01:11:07;;;;;;;2.60;2.00;;;21.40;58.90;;;;;;5132550;28;20184;-70
2023/12/27 01:13:33;;;;;;;3.07;2.10;;;21.30;58.80;;;;;;5132397;28;20169;-70
2023/12/27 01:16:00;;;;;;;3.33;2.27;;;21.40;58.90;;;;;;5132153;28;20164;-70
2023/12/27 01:18:25;;;;;;;4.13;2.80;;;21.30;59.40;;;;;;5132656;28;20294;-70
2023/12/27 01:20:51;;;;;;;3.30;2.33;;;21.30;58.90;;;;;;5131984;28;20497;-70
2023/12/27 01:23:17;;;;;;;2.57;2.10;;;21.40;58.90;;;;;;5132387;28;20172;-70
2023/12/27 01:25:42;;;;;;;3.73;2.23;;;21.30;58.80;;;;;;5132338;28;20194;-70
2023/12/27 01:28:08;;;;;;;3.70;2.20;;;21.30;58.90;;;;;;5132438;28;20184;-70
2023/12/27 01:30:33;;;;;;;3.43;1.90;;;21.30;58.80;;;;;;5132683;28;20173;-70
2023/12/27 01:32:59;;;;;;;4.70;2.50;;;21.30;58.90;;;;;;5131906;28;20757;-69
2023/12/27 01:35:26;;;;;;;2.67;1.60;;;21.30;58.90;;;;;;5113806;28;20176;-70
2023/12/27 01:37:51;;;;;;;3.10;1.97;;;21.30;58.90;;;;;;5132248;28;20203;-70
2023/12/27 01:40:17;;;;;;;3.43;2.73;;;21.30;58.90;;;;;;5132296;28;20401;-69
2023/12/27 01:42:42;;;;;;;2.80;2.07;;;21.30;58.90;;;;;;5113724;28;20248;-69
2023/12/27 01:45:08;;;;;;;4.60;2.10;;;21.30;58.80;;;;;;5134129;27;20256;-70
2023/12/27 01:47:36;;;;;;;2.80;2.03;;;21.30;58.80;;;;;;5136363;27;20203;-70
2023/12/27 01:50:08;;;;;;;2.90;2.60;;;21.30;58.90;;;;;;5136445;27;20180;-70
2023/12/27 01:52:33;;;;;;;2.53;2.17;;;21.30;58.80;;;;;;5136502;27;20438;-70
2023/12/27 01:54:59;;;;;;;3.47;1.90;;;21.30;59.40;;;;;;5136333;27;20752;-70
2023/12/27 01:57:25;;;;;;;2.90;2.10;;;21.30;58.90;;;;;;5135948;27;20204;-69
2023/12/27 01:59:50;;;;;;;3.13;2.13;;;21.30;58.90;;;;;;5135987;27;20301;-70
2023/12/27 02:02:16;;;;;;;3.10;2.00;;;21.30;58.90;;;;;;5136374;27;20180;-70
2023/12/27 02:04:42;;;;;;;3.17;1.90;;;21.30;58.90;;;;;;5136287;27;20245;-69
2023/12/27 02:07:08;;;;;;;3.50;2.47;;;21.30;58.90;;;;;;5136007;27;20661;-69
2023/12/27 02:09:34;;;;;;;3.70;2.67;;;21.30;58.90;;;;;;5117408;27;20172;-69
2023/12/27 02:12:00;;;;;;;3.13;1.60;;;21.30;58.90;;;;;;5136234;27;20460;-69
2023/12/27 02:14:25;;;;;;;3.03;1.90;;;21.30;58.90;;;;;;5135586;27;20179;-69
2023/12/27 02:16:51;;;;;;;2.13;1.60;;;21.30;58.90;;;;;;5117356;27;20204;-70
2023/12/27 02:19:21;;;;;;;2.00;1.60;;;21.30;58.80;;;;;;5135889;27;20178;-70
2023/12/27 02:21:52;;;;;;;2.93;1.67;;;21.30;58.90;;;;;;5135981;27;20205;-70
2023/12/27 02:24:19;;;;;;;3.30;1.77;;;21.30;58.90;;;;;;5135479;27;20410;-69
2023/12/27 02:26:45;;;;;;;3.97;1.73;;;21.30;58.90;;;;;;5135195;27;20437;-70
2023/12/27 02:29:11;;;;;;;3.50;2.23;;;21.30;58.90;;;;;;5135287;27;20402;-70
2023/12/27 02:31:36;;;;;;;3.60;2.43;;;21.30;58.90;;;;;;5135100;27;20200;-69
2023/12/27 02:34:02;;;;;;;2.97;1.87;;;21.30;58.80;;;;;;5135553;27;20161;-70
2023/12/27 02:36:27;;;;;;;2.80;1.63;;;21.30;58.90;;;;;;5135264;27;20194;-70
2023/12/27 02:38:53;;;;;;;3.33;1.80;;;21.30;58.90;;;;;;5135549;27;20172;-70
2023/12/27 02:41:18;;;;;;;2.23;1.67;;;21.30;58.90;;;;;;5135334;27;20594;-69
2023/12/27 02:43:44;;;;;;;2.53;1.93;;;21.30;58.80;;;;;;5135357;27;20187;-70
2023/12/27 02:46:10;;;;;;;2.47;1.53;;;21.30;58.90;;;;;;5116651;27;20176;-69
2023/12/27 02:48:35;;;;;;;2.30;1.43;;;21.30;58.90;;;;;;5135043;27;20694;-70
2023/12/27 02:51:01;;;;;;;2.87;2.27;;;21.30;58.90;;;;;;5135506;27;20183;-70
2023/12/27 02:53:26;;;;;;;3.50;2.17;;;21.30;58.90;;;;;;5135118;27;20173;-69
2023/12/27 02:55:53;;;;;;;3.20;2.00;;;21.30;58.90;;;;;;5133861;27;20172;-69
2023/12/27 02:58:19;;;;;;;2.40;2.20;;;21.30;58.90;;;;;;5134641;27;20313;-70
2023/12/27 03:00:46;;;;;;;3.37;1.87;;;21.30;58.90;;;;;;5134925;27;20907;-69
2023/12/27 03:03:12;;;;;;;3.10;1.97;;;21.30;58.90;;;;;;5134607;27;20171;-70
2023/12/27 03:05:38;;;;;;;2.63;2.27;;;21.30;58.90;;;;;;5135143;27;20409;-69
2023/12/27 03:08:04;;;;;;;3.13;1.60;;;21.30;58.90;;;;;;5134921;27;20512;-70
2023/12/27 03:10:30;;;;;;;3.43;2.03;;;21.30;58.90;;;;;;5135037;27;20682;-70
2023/12/27 03:12:55;;;;;;;3.27;1.90;;;21.30;58.90;;;;;;5135027;27;20445;-70
2023/12/27 03:15:21;;;;;;;2.97;2.10;;;21.30;58.90;;;;;;5134562;27;20511;-69
2023/12/27 03:17:46;;;;;;;3.67;1.83;;;21.30;58.90;;;;;;5134493;27;20204;-70
2023/12/27 03:20:12;;;;;;;2.17;1.60;;;21.30;58.90;;;;;;5134343;27;20179;-70
2023/12/27 03:22:38;;;;;;;1.90;1.60;;;21.30;58.90;;;;;;5134234;27;20251;-70
2023/12/27 03:25:04;;;;;;;2.73;1.67;;;21.30;58.90;;;;;;5134115;27;20172;-69
2023/12/27 03:27:30;;;;;;;2.10;1.50;;;21.30;58.90;;;;;;5134031;27;20192;-69
2023/12/27 03:29:56;;;;;;;3.57;1.90;;;21.30;58.90;;;;;;5134144;27;20432;-69
2023/12/27 03:32:23;;;;;;;2.90;1.63;;;21.30;58.90;;;;;;5134280;27;20788;-70
2023/12/27 03:34:49;;;;;;;2.27;1.83;;;21.30;58.90;;;;;;5134142;27;20168;-69
2023/12/27 03:37:15;;;;;;;2.10;1.60;;;21.30;58.90;;;;;;5115064;27;20811;-69
2023/12/27 03:39:43;;;;;;;3.20;2.50;;;21.30;58.90;;;;;;5133609;27;20173;-69
2023/12/27 03:42:09;;;;;;;2.40;1.70;;;21.30;58.90;;;;;;5134695;27;20696;-68
2023/12/27 03:44:34;;;;;;;2.80;2.07;;;21.30;58.90;;;;;;5134757;27;20424;-69
2023/12/27 03:47:00;;;;;;;2.00;1.77;;;21.30;58.90;;;;;;5133945;27;20413;-70
2023/12/27 03:49:26;;;;;;;1.80;1.63;;;21.30;58.90;;;;;;5134069;27;20165;-69
2023/12/27 03:51:51;;;;;;;2.53;1.93;;;21.30;58.90;;;;;;5133757;27;20312;-70
2023/12/27 03:54:17;;;;;;;2.80;1.70;;;21.30;58.90;;;;;;5133920;27;20165;-70
2023/12/27 03:56:44;;;;;;;2.60;1.47;;;21.30;58.90;;;;;;5134234;27;20172;-69
2023/12/27 03:59:10;;;;;;;2.43;1.67;;;21.30;58.90;;;;;;5133792;27;20172;-69
2023/12/27 04:01:36;;;;;;;2.13;1.60;;;21.30;58.90;;;;;;5134105;27;20410;-69
2023/12/27 04:04:02;;;;;;;2.40;1.87;;;21.30;58.90;;;;;;5133898;27;20164;-70
2023/12/27 04:06:27;;;;;;;2.57;1.97;;;21.30;58.90;;;;;;5133486;27;20487;-70
2023/12/27 04:08:53;;;;;;;2.77;1.97;;;21.30;58.90;;;;;;5133498;27;20169;-70
2023/12/27 04:11:19;;;;;;;2.67;1.60;;;21.30;58.90;;;;;;5133247;27;20687;-69
2023/12/27 04:13:45;;;;;;;2.50;2.00;;;21.30;58.90;;;;;;5133801;27;20255;-70
2023/12/27 04:16:10;;;;;;;3.37;1.83;;;21.30;58.90;;;;;;5133480;27;20406;-69
2023/12/27 04:18:36;;;;;;;2.70;1.80;;;21.30;58.90;;;;;;5133476;27;20203;-69
2023/12/27 04:21:02;;;;;;;2.70;1.83;;;21.30;58.90;;;;;;5133294;27;20165;-69
2023/12/27 04:23:27;;;;;;;2.20;1.60;;;21.30;58.90;;;;;;5133576;27;20183;-70
2023/12/27 04:25:53;;;;;;;3.50;1.73;;;21.30;58.90;;;;;;5133378;27;20666;-69
2023/12/27 04:28:19;;;;;;;2.27;1.60;;;21.30;58.90;;;;;;5133030;27;20267;-70
2023/12/27 04:30:44;;;;;;;2.87;1.50;;;21.30;58.90;;;;;;5133266;27;20176;-69
2023/12/27 04:33:10;;;;;;;1.70;1.40;;;21.30;58.90;;;;;;5133002;27;20192;-70
2023/12/27 04:35:35;;;;;;;3.00;2.03;;;21.30;58.90;;;;;;5133022;27;20160;-69
2023/12/27 04:38:01;;;;;;;3.50;1.67;;;21.20;58.80;;;;;;5114826;27;20588;-70
2023/12/27 04:40:27;;;;;;;2.80;1.57;;;21.30;58.90;;;;;;5133237;27;20168;-70
2023/12/27 04:42:53;;;;;;;4.03;1.80;;;21.20;58.80;;;;;;5133089;27;20520;-70
2023/12/27 04:45:18;;;;;;;3.10;2.03;;;21.20;58.80;;;;;;5133238;27;20242;-69
2023/12/27 04:47:44;;;;;;;1.80;1.47;;;21.20;58.80;;;;;;5133277;27;20422;-70
2023/12/27 04:50:10;;;;;;;2.80;1.93;;;21.30;58.90;;;;;;5133346;27;20832;-69
2023/12/27 04:52:35;;;;;;;3.23;1.80;;;21.20;58.80;;;;;;5133008;27;20237;-70
2023/12/27 04:55:01;;;;;;;1.70;1.57;;;21.20;58.80;;;;;;5133127;27;20639;-70
2023/12/27 04:57:26;;;;;;;1.90;1.70;;;21.20;58.80;;;;;;5132942;27;20241;-70
2023/12/27 04:59:52;;;;;;;2.20;1.67;;;21.20;58.80;;;;;;5133159;28;20251;-70
2023/12/27 05:02:17;;;;;;;1.93;1.43;;;21.20;58.80;;;;;;5132833;28;20180;-70
2023/12/27 05:04:43;;;;;;;2.23;1.67;;;21.30;58.90;;;;;;5133312;28;20591;-70
2023/12/27 05:07:09;;;;;;;2.23;1.83;;;21.30;58.90;;;;;;5132802;28;20268;-70
2023/12/27 05:09:34;;;;;;;2.50;1.50;;;21.20;58.80;;;;;;5133204;28;20542;-70
2023/12/27 05:12:02;;;;;;;2.00;1.80;;;21.20;58.80;;;;;;5114494;28;20224;-69
2023/12/27 05:14:28;;;;;;;2.37;1.50;;;21.20;58.80;;;;;;5133158;28;20274;-70
2023/12/27 05:16:55;;;;;;;3.00;1.70;;;21.30;58.90;;;;;;5132654;28;20533;-70
2023/12/27 05:19:21;;;;;;;1.90;1.50;;;21.30;58.90;;;;;;5133518;27;20635;-70
2023/12/27 05:21:47;;;;;;;2.03;1.70;;;21.30;59.40;;;;;;5118483;27;20457;-69
2023/12/27 05:24:12;;;;;;;2.50;1.70;;;21.30;58.90;;;;;;5137464;27;20494;-68
2023/12/27 05:26:38;;;;;;;3.00;1.50;;;21.30;58.90;;;;;;5137086;27;20727;-69
2023/12/27 05:29:03;;;;;;;2.13;1.67;;;21.30;58.90;;;;;;5137030;27;20176;-69
2023/12/27 05:31:29;;;;;;;1.70;1.40;;;21.30;58.80;;;;;;5137005;27;20211;-70
2023/12/27 05:33:55;;;;;;;3.23;1.77;;;21.30;58.90;;;;;;5136966;27;20188;-69
2023/12/27 05:36:21;;;;;;;2.47;1.60;;;21.30;58.80;;;;;;5136943;27;20807;-68
2023/12/27 05:38:47;;;;;;;2.27;1.60;;;21.30;58.80;;;;;;5136671;27;20568;-70
2023/12/27 05:41:12;;;;;;;4.37;1.50;;;21.30;58.80;;;;;;5118107;27;20172;-69
2023/12/27 05:43:38;;;;;;;2.27;1.40;;;21.30;58.80;;;;;;5136589;27;20401;-69
2023/12/27 05:46:04;;;;;;;2.83;1.57;;;21.30;58.80;;;;;;5136641;27;20638;-69
2023/12/27 05:48:29;;;;;;;1.90;1.10;;;21.30;58.80;;;;;;5136123;27;20240;-71
2023/12/27 05:50:55;;;;;;;3.33;1.47;;;21.30;58.80;;;;;;5136415;27;20176;-70
2023/12/27 05:53:20;;;;;;;2.27;1.40;;;21.30;58.80;;;;;;5136372;27;20294;-69
2023/12/27 05:55:46;;;;;;;2.00;1.80;;;21.30;58.80;;;;;;5136347;27;20180;-70
2023/12/27 05:58:12;;;;;;;2.00;1.53;;;21.30;58.80;;;;;;5136326;27;20188;-70
2023/12/27 06:00:37;;;;;;;1.60;1.07;;;21.30;58.80;;;;;;5136586;27;20245;-69
2023/12/27 06:03:03;;;;;;;2.40;1.30;;;21.30;58.80;;;;;;5136285;27;20172;-70
2023/12/27 06:05:29;;;;;;;1.87;1.50;;;21.30;58.80;;;;;;5136443;27;20279;-69
2023/12/27 06:07:54;;;;;;;2.00;1.33;;;21.30;58.80;;;;;;5136256;27;20207;-70
2023/12/27 06:10:20;;;;;;;2.70;1.30;;;21.30;58.80;;;;;;5136382;27;20592;-70
2023/12/27 06:12:46;;;;;;;2.70;1.47;;;21.30;58.80;;;;;;5136432;27;20234;-70
2023/12/27 06:15:11;;;;;;;2.40;1.80;;;21.30;58.80;;;;;;5136026;27;20241;-70
2023/12/27 06:17:37;;;;;;;2.23;1.40;;;21.30;58.80;;;;;;5135846;27;20505;-69
2023/12/27 06:20:04;;;;;;;2.50;1.70;;;21.30;58.80;;;;;;5136056;27;20183;-70
2023/12/27 06:22:29;;;;;;;2.37;1.50;;;21.30;58.80;;;;;;5136260;27;20553;-70
2023/12/27 06:24:55;;;;;;;1.73;1.23;;;21.30;58.80;;;;;;5135872;27;20414;-70
2023/12/27 06:27:21;;;;;;;1.70;1.13;;;21.30;58.80;;;;;;5136090;27;20697;-70
2023/12/27 06:29:46;;;;;;;1.30;1.00;;;21.30;58.80;;;;;;5135657;27;20553;-70
2023/12/27 06:32:12;;;;;;;1.73;1.40;;;21.30;58.80;;;;;;5136000;27;20207;-70
2023/12/27 06:34:38;;;;;;;1.67;1.20;;;21.30;58.80;;;;;;5135995;27;20176;-70
2023/12/27 06:37:03;;;;;;;2.80;1.37;;;21.30;58.80;;;;;;5135568;27;20267;-70
2023/12/27 06:39:29;;;;;;;1.30;1.20;;;21.30;58.90;;;;;;5136223;27;20176;-69
2023/12/27 06:41:55;;;;;;;1.50;1.10;;;21.40;58.90;;;;;;5135813;27;20184;-69
2023/12/27 06:44:20;;;;;;;2.77;1.70;;;21.40;58.90;;;;;;5135550;27;20221;-70
2023/12/27 06:46:46;;;;;;;2.87;1.40;;;21.40;58.90;;;;;;5135708;27;20195;-70
2023/12/27 06:49:11;;;;;;;2.00;1.70;;;21.40;58.90;;;;;;5135733;27;20655;-70
2023/12/27 06:51:37;;;;;;;3.03;1.93;;;21.40;58.80;;;;;;5135440;27;20196;-70
2023/12/27 06:54:03;;;;;;;1.97;1.37;;;21.50;58.90;;;;;;5135353;27;20172;-70
2023/12/27 06:56:28;;;;;;;2.83;1.70;;;21.50;58.90;;;;;;5135313;27;20176;-70
2023/12/27 06:58:54;;;;;;;2.20;1.67;;;21.50;58.90;;;;;;5135213;27;20180;-70
2023/12/27 07:01:19;;;;;;;2.07;1.30;;;21.50;58.90;;;;;;5135399;27;20530;-69
2023/12/27 07:03:45;;;;;;;2.07;1.87;;;21.50;58.90;;;;;;5134803;27;20251;-70
2023/12/27 07:06:10;;;;;;;1.40;1.30;;;21.50;58.80;;;;;;5135133;27;20175;-70
2023/12/27 07:08:36;;;;;;;2.20;1.30;;;21.50;58.80;;;;;;5116454;27;20196;-70
2023/12/27 07:11:02;;;;;;;2.60;1.30;;;21.50;58.90;;;;;;5135189;27;20634;-69
2023/12/27 07:13:28;;;;;;;2.40;1.47;;;21.50;58.80;;;;;;5135208;27;20264;-69
2023/12/27 07:15:54;;;;;;;1.50;1.20;;;21.50;58.80;;;;;;5135470;27;20180;-70
2023/12/27 07:18:19;;;;;;;1.47;1.07;;;21.50;58.80;;;;;;5116211;27;21234;-69
2023/12/27 07:20:45;;;;;;;1.53;1.20;;;21.50;58.80;;;;;;5134457;27;20585;-69
2023/12/27 07:23:11;;;;;;;1.53;1.30;;;21.50;58.80;;;;;;5134889;27;20188;-69
2023/12/27 07:25:37;;;;;;;2.47;1.50;;;21.60;58.80;;;;;;5134851;27;20408;-69
2023/12/27 07:28:03;;;;;;;1.63;1.10;;;21.60;58.80;;;;;;5134861;27;20200;-70
2023/12/27 07:30:29;;;;;;;2.67;1.63;;;21.60;58.80;;;;;;5134994;27;20402;-70
2023/12/27 07:32:54;;;;;;;1.73;1.43;;;21.60;58.80;;;;;;5134300;27;20464;-69
2023/12/27 07:35:20;;;;;;;3.70;1.60;;;21.60;58.80;;;;;;5133845;27;20245;-69
2023/12/27 07:37:46;;;;;;;2.30;1.60;;;21.60;58.80;;;;;;5133493;27;20653;-69
2023/12/27 07:40:13;;;;;;;2.03;1.30;;;21.60;58.80;;;;;;5133833;27;20199;-69
2023/12/27 07:42:39;;;;;;;1.57;1.13;;;21.60;58.80;;;;;;5132703;27;20463;-70
2023/12/27 07:45:05;;;;;;;1.70;1.40;;;21.60;58.90;;;;;;5133668;27;20940;-69
2023/12/27 07:47:31;;;;;;;2.80;1.20;;;21.60;58.90;;;;;;5133333;27;20196;-70
2023/12/27 07:49:57;;;;;;;1.80;1.30;;;21.60;58.90;;;;;;5133377;27;20429;-70
2023/12/27 07:52:23;;;;;;;2.33;1.73;;;21.60;58.90;;;;;;5133417;27;20281;-68
2023/12/27 07:54:48;;;;;;;1.90;1.20;;;21.60;58.90;;;;;;5133511;27;20429;-70
2023/12/27 07:57:14;;;;;;;3.03;1.40;;;21.60;58.90;;;;;;5133345;27;20192;-69
2023/12/27 07:59:39;;;;;;;2.33;1.30;;;21.60;58.90;;;;;;5133533;27;20184;-69
2023/12/27 08:02:05;;;;;;;1.63;1.23;;;21.60;58.90;;;;;;5133125;27;20259;-69
2023/12/27 08:04:31;;;;;;;2.23;1.50;;;21.60;58.90;;;;;;5133344;27;20207;-70
2023/12/27 08:06:57;;;;;;;1.90;1.40;;;21.60;58.90;;;;;;5133077;27;20460;-70
2023/12/27 08:09:22;;;;;;;1.37;1.10;;;21.60;58.90;;;;;;5133056;27;20184;-70
2023/12/27 08:11:48;;;;;;;2.20;1.40;;;21.60;58.90;;;;;;5132815;27;20195;-69
2023/12/27 08:14:13;;;;;;;1.90;1.10;;;21.60;58.80;;;;;;5133138;27;20172;-70
2023/12/27 08:16:39;;;;;;;1.70;1.07;;;21.60;58.80;;;;;;5132586;27;20184;-70
2023/12/27 08:19:05;;;;;;;1.97;1.50;;;21.60;58.80;;;;;;5132835;27;20214;-69
2023/12/27 08:21:30;;;;;;;2.60;1.60;;;21.60;58.80;;;;;;5133061;27;20177;-70
2023/12/27 08:23:56;;;;;;;2.20;1.30;;;21.60;58.80;;;;;;5132765;27;20172;-69
2023/12/27 08:26:21;;;;;;;2.90;1.23;;;21.60;58.80;;;;;;5132639;27;20646;-70
2023/12/27 08:28:47;;;;;;;2.03;1.30;;;21.60;58.80;;;;;;5132788;27;20192;-69
2023/12/27 08:31:13;;;;;;;2.50;1.40;;;21.70;58.90;;;;;;5132899;27;20183;-70
2023/12/27 08:33:39;;;;;;;2.67;1.97;;;21.70;59.00;;;;;;5132664;27;20207;-70
2023/12/27 08:36:05;;;;;;;3.50;2.03;;;21.70;59.00;;;;;;5132650;27;20869;-69
2023/12/27 08:38:32;;;;;;;2.50;1.40;;;21.70;59.00;;;;;;5132559;27;20440;-70
2023/12/27 08:40:58;;;;;;;1.80;1.30;;;21.70;59.00;;;;;;5133031;27;20406;-69
2023/12/27 08:43:29;;;;;;;3.20;1.33;;;21.70;59.00;;;;;;5132394;27;20875;-69
2023/12/27 08:45:55;;;;;;;1.70;1.53;;;21.60;59.00;;;;;;5132873;27;20401;-69
2023/12/27 08:48:20;;;;;;;2.30;1.83;;;21.70;59.00;;;;;;5132551;27;20799;-68
2023/12/27 08:50:48;;;;;;;2.90;1.70;;;21.60;59.00;;;;;;5132600;27;20410;-70
2023/12/27 08:53:14;;;;;;;3.93;1.43;;;21.70;59.00;;;;;;5132518;27;20209;-69
2023/12/27 08:55:39;;;;;;;2.90;1.53;;;21.70;59.10;;;;;;5132434;27;20405;-69
2023/12/27 08:58:05;;;;;;;2.60;1.70;;;21.70;59.10;;;;;;5132203;27;20671;-70
2023/12/27 09:00:31;;;;;;;5.43;1.53;;;21.60;59.00;;;;;;5132486;28;20175;-70
2023/12/27 09:02:56;;;;;;;1.73;1.20;;;21.70;59.10;;;;;;5132383;28;20409;-70
2023/12/27 09:05:22;;;;;;;1.60;1.20;;;21.70;59.10;;;;;;5132145;28;20537;-69
2023/12/27 09:07:48;;;;;;;1.80;1.23;;;21.70;59.10;;;;;;5132261;28;20188;-70
2023/12/27 09:10:13;;;;;;;2.53;1.40;;;21.60;59.00;;;;;;5132314;28;20245;-70
2023/12/27 09:12:39;;;;;;;1.90;1.13;;;21.70;59.10;;;;;;5131874;28;20229;-69
2023/12/27 09:15:07;;;;;;;1.73;1.17;;;21.70;59.00;;;;;;5113836;28;20176;-69
2023/12/27 09:17:32;;;;;;;1.90;1.50;;;21.70;59.00;;;;;;5131948;28;20223;-69
2023/12/27 09:19:58;;;;;;;1.90;1.40;;;21.70;59.00;;;;;;5132135;28;20410;-69
2023/12/27 09:22:24;;;;;;;3.50;1.30;;;21.60;58.90;;;;;;5113575;28;20287;-69
2023/12/27 09:24:49;;;;;;;2.10;1.40;;;21.60;58.90;;;;;;5132033;28;20601;-69
2023/12/27 09:27:17;;;;;;;1.90;1.47;;;21.60;58.90;;;;;;5132160;28;20192;-70
2023/12/27 09:29:43;;;;;;;2.33;1.27;;;21.60;58.90;;;;;;5132041;28;20188;-70
2023/12/27 09:32:09;;;;;;;2.70;1.17;;;21.60;58.90;;;;;;5132125;28;20970;-70
2023/12/27 09:34:34;;;;;;;2.77;1.67;;;21.60;58.90;;;;;;5132496;28;20414;-69
2023/12/27 09:37:03;;;;;;;1.87;1.47;;;21.60;58.90;;;;;;5131891;28;20200;-70
2023/12/27 09:39:29;;;;;;;2.10;1.30;;;21.60;58.90;;;;;;5132023;28;20160;-69
2023/12/27 09:41:54;;;;;;;2.20;1.40;;;21.60;58.90;;;;;;5132121;28;20414;-70
2023/12/27 09:44:20;;;;;;;3.13;1.40;;;21.60;58.90;;;;;;5132277;28;20421;-69
2023/12/27 09:46:47;;;;;;;3.87;1.50;;;21.60;58.90;;;;;;5132042;28;20202;-70
2023/12/27 09:49:12;;;;;;;2.03;1.27;;;21.60;58.90;;;;;;5131708;28;20437;-68
2023/12/27 09:51:39;;;;;;;2.27;1.43;;;21.60;58.90;;;;;;5132141;28;20554;-70
2023/12/27 09:54:05;;;;;;;2.97;1.30;;;21.60;59.50;;;;;;5131860;28;20168;-69
2023/12/27 09:56:32;;;;;;;1.93;1.40;;;21.60;59.00;;;;;;5131912;28;20798;-70
2023/12/27 09:59:05;;;;;;;3.10;1.57;;;21.60;59.00;;;;;;5131780;28;20949;-70
2023/12/27 10:01:40;;;;;;;1.70;1.30;;;21.60;59.00;;;;;;5113014;28;20413;-69
2023/12/27 10:04:29;;;;;;;1.80;1.40;;;21.60;59.00;;;;;;5131985;28;20496;-69
2023/12/27 10:06:57;;;;;;;1.67;1.40;;;21.60;59.00;;;;;;5117939;27;20437;-69
2023/12/27 10:09:23;;;;;;;2.60;2.17;;;21.60;58.90;;;;;;5135090;27;20410;-68
2023/12/27 10:11:49;;;;;;;1.80;1.53;;;21.60;58.80;;;;;;5134943;27;20803;-70
2023/12/27 10:14:16;;;;;;;1.57;1.40;;;21.60;58.80;;;;;;5135009;27;20417;-69
2023/12/27 10:16:42;;;;;;;2.90;1.67;;;21.60;58.80;;;;;;5135023;27;20659;-69
2023/12/27 10:19:07;;;;;;;3.43;1.70;;;21.60;58.80;;;;;;5134825;27;20876;-69
2023/12/27 10:21:41;;;;;;;2.07;1.30;;;21.60;58.80;;;;;;5134848;27;20731;-70
2023/12/27 10:24:10;;;;;;;3.50;1.70;;;21.60;58.80;;;;;;5135470;27;20227;-70
2023/12/27 10:26:36;;;;;;;3.43;1.50;;;21.60;58.80;;;;;;5134932;27;20893;-69
2023/12/27 10:29:02;;;;;;;2.67;1.93;;;21.60;58.80;;;;;;5135180;27;20801;-69
2023/12/27 10:31:28;;;;;;;2.23;1.63;;;21.60;58.80;;;;;;5135421;27;20404;-69
2023/12/27 10:33:55;;;;;;;1.57;1.37;;;21.60;58.80;;;;;;5135534;27;20422;-70
2023/12/27 10:36:20;;;;;;;2.90;1.60;;;21.60;58.90;;;;;;5116958;27;20175;-69
2023/12/27 10:38:46;;;;;;;3.50;1.97;;;21.60;58.90;;;;;;5135259;27;20436;-70
2023/12/27 10:41:12;;;;;;;1.93;1.73;;;21.60;58.90;;;;;;5116950;27;20229;-70
2023/12/27 10:43:38;;;;;;;2.53;1.40;;;21.60;58.90;;;;;;5135380;27;20172;-69
2023/12/27 10:46:10;;;;;;;2.77;1.60;;;21.60;58.90;;;;;;5135008;27;20519;-70
2023/12/27 10:48:39;;;;;;;2.30;1.73;;;21.60;58.90;;;;;;5135769;27;20801;-70
2023/12/27 10:51:07;;;;;;;2.90;1.70;;;21.60;58.90;;;;;;5099695;27;20474;-69
2023/12/27 10:53:35;;;;;;;2.07;1.83;;;21.60;58.80;;;;;;5134899;27;20449;-69
2023/12/27 10:56:04;;;;;;;7.37;2.73;;;21.60;58.80;;;;;;5134931;27;20406;-69
2023/12/27 10:58:31;;;;;;;6.07;2.90;;;21.60;58.80;;;;;;5135140;27;20437;-69
2023/12/27 11:00:58;;;;;;;3.80;2.87;;;21.60;59.30;;;;;;5134712;27;20413;-70
2023/12/27 11:03:25;;;;;;;2.70;2.50;;;21.60;58.80;;;;;;5115871;27;20519;-69
2023/12/27 11:05:51;;;;;;;2.43;2.00;;;21.60;58.70;;;;;;5115949;27;20450;-71
2023/12/27 11:08:17;;;;;;;2.07;1.80;;;21.60;58.80;;;;;;5134421;27;20847;-68
2023/12/27 11:10:45;;;;;;;4.47;2.57;;;21.60;58.80;;;;;;5134385;27;20489;-70
2023/12/27 11:13:12;;;;;;;2.27;1.90;;;21.60;58.70;;;;;;5134016;27;20453;-70
2023/12/27 11:15:44;;;;;;;5.07;1.87;;;21.60;58.80;;;;;;5134119;27;20784;-69
2023/12/27 11:18:10;;;;;;;3.30;2.00;;;21.60;58.80;;;;;;5114232;27;20847;-70
2023/12/27 11:20:36;;;;;;;3.30;2.10;;;21.60;58.80;;;;;;5133932;27;20413;-70
2023/12/27 11:23:03;;;;;;;3.23;2.10;;;21.60;58.80;;;;;;5134027;27;20453;-70
2023/12/27 11:25:29;;;;;;;2.20;2.00;;;21.60;58.80;;;;;;5133665;27;20418;-69
2023/12/27 11:27:56;;;;;;;3.50;2.07;;;21.60;58.70;;;;;;5133522;27;20482;-70
2023/12/27 11:30:22;;;;;;;3.57;2.30;;;21.60;58.80;;;;;;5133721;27;20497;-68
2023/12/27 11:32:48;;;;;;;3.53;1.87;;;21.60;58.70;;;;;;5133936;27;20541;-70
2023/12/27 11:35:24;;;;;;;6.10;2.87;;;21.60;58.80;;;;;;5133886;27;20172;-70
2023/12/27 11:37:52;;;;;;;6.50;1.83;;;21.60;58.70;;;;;;5133717;27;20203;-69
2023/12/27 11:40:33;;;;;;;3.40;2.30;;;21.60;58.80;;;;;;5133806;27;20421;-69
2023/12/27 11:42:59;;;;;;;4.50;2.13;;;21.60;58.80;;;;;;5133929;27;20417;-70
2023/12/27 11:45:39;;;;;;;1.80;1.70;;;21.60;58.80;;;;;;5133997;27;20406;-69
2023/12/27 11:48:07;;;;;;;2.37;2.00;;;21.60;58.80;;;;;;5133700;27;20210;-69
2023/12/27 11:50:33;;;;;;;2.40;1.90;;;21.60;58.80;;;;;;5133363;27;20532;-69
2023/12/27 11:52:59;;;;;;;3.60;2.30;;;21.60;58.80;;;;;;5133606;27;20461;-68
2023/12/27 11:55:31;;;;;;;2.30;2.07;;;21.60;58.80;;;;;;5133673;27;20493;-69
2023/12/27 11:58:00;;;;;;;2.37;2.17;;;21.60;58.80;;;;;;5133649;27;20291;-69
2023/12/27 12:00:28;;;;;;;4.33;2.13;;;21.60;58.80;;;;;;5133084;27;20398;-69
2023/12/27 12:02:59;;;;;;;3.57;2.40;;;21.60;58.80;;;;;;5133308;27;20421;-69
2023/12/27 12:06:03;;;;;;;2.73;2.10;;;21.60;58.80;;;;;;5133152;27;20966;-70
2023/12/27 12:08:45;;;;;;;2.77;2.00;;;21.60;58.80;;;;;;5133243;27;20432;-70
2023/12/27 12:11:14;;;;;;;2.10;1.90;;;21.60;58.80;;;;;;5133315;27;20439;-70
2023/12/27 12:13:40;;;;;;;3.30;2.20;;;21.60;58.80;;;;;;5133604;27;20422;-70
2023/12/27 12:16:07;;;;;;;2.40;2.10;;;21.50;58.80;;;;;;5132859;27;20893;-69
2023/12/27 12:18:34;;;;;;;2.27;2.03;;;21.50;58.80;;;;;;5132969;27;21030;-69
2023/12/27 12:21:00;;;;;;;2.30;2.07;;;21.50;58.80;;;;;;5133026;27;20412;-70
2023/12/27 12:23:30;;;;;;;4.43;1.90;;;21.50;58.80;;;;;;5133157;27;20421;-70
2023/12/27 12:26:00;;;;;;;2.50;2.00;;;21.50;58.80;;;;;;5114914;27;20508;-70
2023/12/27 12:28:29;;;;;;;4.10;2.80;;;21.50;58.80;;;;;;5132978;27;20440;-70
2023/12/27 12:30:58;;;;;;;2.30;2.10;;;21.50;58.80;;;;;;5132944;27;20447;-69
2023/12/27 12:33:24;;;;;;;1.80;1.60;;;21.50;58.80;;;;;;5132834;27;21098;-69
2023/12/27 12:35:52;;;;;;;3.47;1.90;;;21.50;58.80;;;;;;5114577;27;20445;-69
2023/12/27 12:38:18;;;;;;;2.50;1.93;;;21.50;58.80;;;;;;5132919;27;20437;-70
2023/12/27 12:40:50;;;;;;;1.90;1.80;;;21.50;58.80;;;;;;5133030;27;20783;-70
2023/12/27 12:43:16;;;;;;;1.90;1.70;;;21.50;58.80;;;;;;5133005;27;20575;-68